Time;durP1;ratioP1;P1;durP2;ratioP2;P2;SDS_P1;SDS_P2;PMS_P1;PMS_P2;Temp;Humidity;BMP_temperature;BMP_pressure;BME280_temperature;BME280_humidity;BME280_pressure;Samples;Min_cycle;Max_cycle;Signal;HPM_P1;HPM_P2
2022/04/15 00:01:40;;;;;;;11.07;4.78;;;8.70;99.90;;;;;;5025288;28;20049;-65
2022/04/15 00:04:05;;;;;;;5.68;4.22;;;8.70;99.90;;;;;;5015747;28;20056;-65
2022/04/15 00:06:32;;;;;;;6.43;5.03;;;8.70;99.90;;;;;;5029102;28;20075;-65
2022/04/15 00:08:58;;;;;;;7.50;4.20;;;8.80;99.90;;;;;;5005217;28;20525;-66
2022/04/15 00:11:24;;;;;;;6.20;4.78;;;8.80;99.90;;;;;;5020839;28;20052;-67
2022/04/15 00:13:49;;;;;;;6.93;4.85;;;8.80;99.90;;;;;;5007920;28;20064;-66
2022/04/15 00:16:15;;;;;;;5.93;4.65;;;8.80;99.90;;;;;;5017643;28;20740;-65
2022/04/15 00:18:41;;;;;;;9.63;4.88;;;8.80;99.90;;;;;;5010777;28;20168;-65
2022/04/15 00:21:07;;;;;;;6.00;4.10;;;8.80;99.90;;;;;;4999896;28;20084;-65
2022/04/15 00:23:34;;;;;;;7.55;4.80;;;8.90;99.90;;;;;;5023186;28;20151;-65
2022/04/15 00:26:00;;;;;;;7.32;5.32;;;8.90;99.90;;;;;;5032842;28;20094;-65
2022/04/15 00:28:26;;;;;;;6.38;4.57;;;8.90;99.90;;;;;;5011802;28;20138;-65
2022/04/15 00:30:53;;;;;;;6.90;4.18;;;8.90;99.90;;;;;;5005811;28;20092;-66
2022/04/15 00:33:19;;;;;;;8.52;4.50;;;9.00;99.90;;;;;;5002758;28;20129;-65
2022/04/15 00:35:44;;;;;;;5.50;4.15;;;9.00;99.90;;;;;;5025280;28;20053;-65
2022/04/15 00:38:10;;;;;;;4.80;4.13;;;9.00;99.90;;;;;;5016024;28;20041;-66
2022/04/15 00:40:36;;;;;;;5.97;3.67;;;9.00;99.90;;;;;;5005597;28;20129;-66
2022/04/15 00:43:02;;;;;;;6.38;4.85;;;9.00;99.90;;;;;;5007203;28;20060;-66
2022/04/15 00:45:27;;;;;;;6.78;4.18;;;9.00;99.90;;;;;;5025183;28;20057;-66
2022/04/15 00:47:58;;;;;;;6.45;4.93;;;9.00;99.90;;;;;;5019158;28;20077;-65
2022/04/15 00:50:26;;;;;;;10.38;4.40;;;9.00;99.90;;;;;;5025219;28;20821;-65
2022/04/15 00:52:54;;;;;;;6.80;4.20;;;9.00;99.90;;;;;;5026812;28;20080;-66
2022/04/15 00:55:21;;;;;;;5.47;4.70;;;9.00;99.90;;;;;;5028558;28;20042;-66
2022/04/15 00:58:00;;;;;;;7.18;4.60;;;9.10;99.90;;;;;;5002321;28;20119;-65
2022/04/15 01:00:29;;;;;;;9.13;5.05;;;9.10;99.90;;;;;;5035357;28;20049;-65
2022/04/15 01:03:00;;;;;;;5.57;4.20;;;9.20;99.90;;;;;;5016022;28;20124;-65
2022/04/15 01:05:27;;;;;;;6.53;4.38;;;9.10;99.90;;;;;;4996053;28;20049;-65
2022/04/15 01:07:57;;;;;;;6.63;5.03;;;9.10;99.90;;;;;;5034238;28;20091;-65
2022/04/15 01:10:25;;;;;;;8.13;5.55;;;9.20;99.90;;;;;;5035822;28;20079;-65
2022/04/15 01:12:54;;;;;;;4.47;4.07;;;9.20;99.90;;;;;;5012894;28;20473;-65
2022/04/15 01:15:25;;;;;;;6.18;4.22;;;9.20;99.90;;;;;;5016130;28;20044;-65
2022/04/15 01:17:50;;;;;;;6.60;4.63;;;9.30;99.90;;;;;;5018472;28;20044;-65
2022/04/15 01:20:16;;;;;;;9.93;4.53;;;9.30;99.90;;;;;;5035157;28;20055;-66
2022/04/15 01:22:44;;;;;;;7.80;4.38;;;9.30;99.90;;;;;;5028507;28;20041;-65
2022/04/15 01:25:12;;;;;;;9.43;4.25;;;8.30;99.90;;;;;;5017609;28;20110;-65
2022/04/15 01:27:41;;;;;;;6.07;4.60;;;9.30;99.90;;;;;;5035657;28;20045;-65
2022/04/15 01:30:15;;;;;;;7.53;4.00;;;9.30;99.90;;;;;;5018369;28;20044;-65
2022/04/15 01:32:41;;;;;;;6.28;4.47;;;9.30;99.90;;;;;;5018011;28;20072;-65
2022/04/15 01:35:07;;;;;;;6.53;4.65;;;9.30;99.90;;;;;;5017126;28;20462;-65
2022/04/15 01:37:35;;;;;;;5.55;3.55;;;9.30;99.90;;;;;;5036515;28;20051;-65
2022/04/15 01:40:01;;;;;;;9.18;4.40;;;9.30;99.90;;;;;;5035367;28;20052;-65
2022/04/15 01:42:27;;;;;;;6.80;4.85;;;9.30;99.90;;;;;;5036035;28;20409;-65
2022/04/15 01:44:52;;;;;;;5.32;4.43;;;9.30;99.90;;;;;;5036389;28;20048;-65
2022/04/15 01:47:18;;;;;;;3.97;3.58;;;9.30;99.90;;;;;;5007191;28;20077;-65
2022/04/15 01:49:44;;;;;;;3.83;3.50;;;9.40;99.90;;;;;;5007655;28;20055;-65
2022/04/15 01:52:10;;;;;;;4.78;3.63;;;9.30;99.90;;;;;;5015434;28;20052;-66
2022/04/15 01:54:35;;;;;;;10.18;4.18;;;9.40;99.90;;;;;;4997454;28;20120;-66
2022/04/15 01:57:01;;;;;;;5.95;4.28;;;9.40;99.90;;;;;;5031103;28;20495;-66
2022/04/15 01:59:27;;;;;;;5.32;3.88;;;9.40;99.90;;;;;;4997117;28;20073;-66
2022/04/15 02:01:55;;;;;;;8.57;4.25;;;9.40;99.90;;;;;;5001972;28;20056;-66
2022/04/15 02:04:22;;;;;;;4.93;3.58;;;9.40;99.90;;;;;;5014284;28;20057;-66
2022/04/15 02:06:48;;;;;;;4.28;3.63;;;9.40;99.90;;;;;;4994188;28;20056;-66
2022/04/15 02:09:13;;;;;;;5.32;3.28;;;9.40;99.90;;;;;;4978501;28;20104;-66
2022/04/15 02:11:39;;;;;;;4.82;4.25;;;9.50;99.90;;;;;;4996544;28;20044;-66
2022/04/15 02:14:05;;;;;;;7.30;3.80;;;9.40;99.90;;;;;;5008346;28;20065;-66
2022/04/15 02:16:30;;;;;;;6.13;3.10;;;9.40;99.90;;;;;;4979632;28;20053;-66
2022/04/15 02:18:56;;;;;;;3.92;3.55;;;9.30;99.90;;;;;;5000153;28;20492;-66
2022/04/15 02:21:21;;;;;;;5.65;4.20;;;9.30;99.90;;;;;;5036444;28;20056;-66
2022/04/15 02:23:47;;;;;;;6.43;4.05;;;9.30;99.90;;;;;;5006058;28;20095;-66
2022/04/15 02:26:12;;;;;;;4.15;3.10;;;9.20;99.90;;;;;;4982228;28;20108;-66
2022/04/15 02:28:38;;;;;;;4.40;3.08;;;9.20;99.90;;;;;;5000336;28;20081;-66
2022/04/15 02:31:03;;;;;;;5.78;2.97;;;9.20;99.90;;;;;;5027958;28;20052;-66
2022/04/15 02:33:29;;;;;;;7.28;3.58;;;9.20;99.90;;;;;;5039415;28;20579;-66
2022/04/15 02:35:55;;;;;;;7.70;3.42;;;9.20;99.90;;;;;;5039367;28;20056;-66
2022/04/15 02:38:21;;;;;;;5.38;3.17;;;9.30;99.90;;;;;;5039261;28;20040;-66
2022/04/15 02:40:47;;;;;;;5.22;3.15;;;9.30;99.90;;;;;;5008095;28;20430;-66
2022/04/15 02:43:13;;;;;;;3.05;2.55;;;9.30;99.90;;;;;;4982244;28;20087;-65
2022/04/15 02:45:39;;;;;;;7.93;3.92;;;9.30;99.90;;;;;;5000682;28;20079;-66
2022/04/15 02:48:05;;;;;;;3.83;2.70;;;9.30;99.90;;;;;;5000210;28;20049;-67
2022/04/15 02:50:30;;;;;;;4.13;3.42;;;9.30;99.90;;;;;;4999665;28;20050;-66
2022/04/15 02:52:58;;;;;;;5.10;3.15;;;9.30;99.90;;;;;;4982607;28;20049;-66
2022/04/15 02:55:24;;;;;;;5.32;2.92;;;9.30;99.90;;;;;;5000315;28;20053;-66
2022/04/15 02:57:49;;;;;;;5.20;3.47;;;9.30;99.90;;;;;;4998666;28;20049;-66
2022/04/15 03:00:15;;;;;;;6.40;3.90;;;9.40;99.90;;;;;;4982110;28;20057;-66
2022/04/15 03:02:41;;;;;;;6.88;3.40;;;9.30;99.90;;;;;;4982690;28;20061;-66
2022/04/15 03:05:09;;;;;;;3.97;3.28;;;9.30;99.90;;;;;;4999296;28;20045;-66
2022/04/15 03:07:35;;;;;;;7.10;3.30;;;9.30;99.90;;;;;;5018074;28;20045;-66
2022/04/15 03:10:01;;;;;;;4.45;4.05;;;9.40;99.90;;;;;;5021375;28;20131;-66
2022/04/15 03:12:26;;;;;;;8.52;5.25;;;9.30;99.90;;;;;;5037717;28;20900;-66
2022/04/15 03:14:53;;;;;;;8.13;6.85;;;9.30;99.90;;;;;;5007692;28;20065;-66
2022/04/15 03:17:19;;;;;;;8.73;6.78;;;9.30;99.90;;;;;;4981752;28;20058;-65
2022/04/15 03:19:44;;;;;;;10.15;6.82;;;9.20;99.90;;;;;;4980959;28;20034;-66
2022/04/15 03:22:10;;;;;;;10.35;7.15;;;9.20;99.90;;;;;;4981066;28;20058;-66
2022/04/15 03:24:35;;;;;;;9.95;6.65;;;9.20;99.90;;;;;;4981417;28;20058;-66
2022/04/15 03:27:01;;;;;;;10.45;7.55;;;9.10;99.90;;;;;;4998757;28;20160;-66
2022/04/15 03:29:27;;;;;;;9.40;6.20;;;9.00;99.90;;;;;;5001435;28;20980;-66
2022/04/15 03:31:52;;;;;;;12.52;7.22;;;9.00;99.90;;;;;;5038745;28;20053;-66
2022/04/15 03:34:18;;;;;;;13.13;8.13;;;9.00;99.90;;;;;;5038196;28;20041;-66
2022/04/15 03:36:45;;;;;;;9.82;6.97;;;9.00;99.90;;;;;;5039130;28;20060;-65
2022/04/15 03:39:11;;;;;;;13.15;7.53;;;9.00;99.90;;;;;;5038146;28;20103;-65
2022/04/15 03:41:36;;;;;;;9.60;6.53;;;9.00;99.90;;;;;;5020037;28;20831;-66
2022/04/15 03:44:02;;;;;;;10.35;7.05;;;8.90;99.90;;;;;;5020682;28;20087;-66
2022/04/15 03:46:27;;;;;;;8.65;5.93;;;8.80;99.90;;;;;;5024101;28;20104;-66
2022/04/15 03:48:53;;;;;;;7.95;5.55;;;8.80;99.90;;;;;;4998892;28;20111;-66
2022/04/15 03:51:18;;;;;;;7.40;5.32;;;8.70;99.90;;;;;;4980776;28;20059;-66
2022/04/15 03:53:44;;;;;;;5.68;4.75;;;8.80;99.90;;;;;;4998770;28;20072;-65
2022/04/15 03:56:09;;;;;;;6.50;4.78;;;8.70;99.90;;;;;;4998801;28;20045;-66
2022/04/15 03:58:35;;;;;;;6.18;5.15;;;8.60;99.90;;;;;;4995842;28;20534;-66
2022/04/15 04:01:01;;;;;;;6.88;4.68;;;8.60;99.90;;;;;;5018210;28;20050;-66
2022/04/15 04:03:27;;;;;;;6.00;4.03;;;8.60;99.90;;;;;;5001015;28;20041;-66
2022/04/15 04:05:53;;;;;;;4.78;4.28;;;8.60;99.90;;;;;;5023136;28;20139;-65
2022/04/15 04:08:18;;;;;;;4.85;3.40;;;8.50;99.90;;;;;;5019672;28;20068;-66
2022/04/15 04:10:44;;;;;;;4.30;3.90;;;8.50;99.90;;;;;;5020805;28;20465;-66
2022/04/15 04:13:09;;;;;;;4.47;3.55;;;8.50;99.90;;;;;;5034957;28;20905;-66
2022/04/15 04:15:35;;;;;;;6.18;3.88;;;8.50;99.90;;;;;;4998414;28;20057;-66
2022/04/15 04:18:01;;;;;;;10.00;4.78;;;8.50;99.90;;;;;;4998813;28;20045;-66
2022/04/15 04:20:27;;;;;;;8.55;4.18;;;8.40;99.90;;;;;;4980514;28;20092;-66
2022/04/15 04:22:53;;;;;;;7.00;4.03;;;8.30;99.90;;;;;;4997698;28;20108;-65
2022/04/15 04:25:19;;;;;;;6.85;4.78;;;8.30;99.90;;;;;;4998050;28;20053;-66
2022/04/15 04:27:44;;;;;;;3.90;3.60;;;8.30;99.90;;;;;;4980845;28;20052;-66
2022/04/15 04:30:15;;;;;;;8.20;4.72;;;8.30;99.90;;;;;;5011424;28;20053;-65
2022/04/15 04:32:42;;;;;;;8.77;3.88;;;8.20;99.90;;;;;;5037895;28;20048;-66
2022/04/15 04:35:08;;;;;;;4.50;3.90;;;8.20;99.90;;;;;;5037194;28;20882;-64
2022/04/15 04:37:34;;;;;;;5.45;4.18;;;8.20;99.90;;;;;;5019265;28;20049;-66
2022/04/15 04:40:00;;;;;;;7.07;3.60;;;8.10;99.90;;;;;;5037523;28;20385;-66
2022/04/15 04:42:27;;;;;;;5.30;3.80;;;8.10;99.90;;;;;;5037494;28;20037;-66
2022/04/15 04:44:53;;;;;;;5.43;3.90;;;8.10;99.90;;;;;;5037048;28;20060;-66
2022/04/15 04:47:20;;;;;;;4.95;3.63;;;8.20;99.90;;;;;;5009251;28;20129;-66
2022/04/15 04:49:46;;;;;;;5.30;3.60;;;8.20;99.90;;;;;;4980497;28;20775;-66
2022/04/15 04:52:12;;;;;;;3.75;3.45;;;8.30;99.90;;;;;;4997298;28;20053;-66
2022/04/15 04:54:39;;;;;;;4.63;3.60;;;8.30;99.90;;;;;;4997880;28;20128;-65
2022/04/15 04:57:04;;;;;;;5.57;4.28;;;8.30;99.90;;;;;;4979371;28;20045;-66
2022/04/15 04:59:32;;;;;;;6.68;4.30;;;8.20;99.90;;;;;;4997701;28;20053;-66
2022/04/15 05:01:58;;;;;;;4.78;3.83;;;8.20;99.90;;;;;;4980007;28;20633;-66
2022/04/15 05:04:23;;;;;;;6.57;4.15;;;8.20;99.90;;;;;;4996906;28;20060;-66
2022/04/15 05:06:49;;;;;;;4.47;3.60;;;8.30;99.90;;;;;;5003297;28;20405;-66
2022/04/15 05:09:15;;;;;;;5.47;3.70;;;8.30;99.90;;;;;;5019017;28;20049;-66
2022/04/15 05:11:41;;;;;;;4.32;3.03;;;8.30;99.90;;;;;;5036950;28;20059;-66
2022/04/15 05:14:07;;;;;;;4.18;2.95;;;8.10;99.90;;;;;;5001039;28;20050;-66
2022/04/15 05:16:32;;;;;;;3.42;2.85;;;8.10;99.90;;;;;;4997780;28;20045;-66
2022/04/15 05:18:58;;;;;;;4.53;3.42;;;8.20;99.90;;;;;;4996785;28;20826;-66
2022/04/15 05:21:23;;;;;;;4.38;3.53;;;8.20;99.90;;;;;;4997167;28;20565;-66
2022/04/15 05:23:49;;;;;;;5.15;3.88;;;8.10;99.90;;;;;;4996898;28;20473;-66
2022/04/15 05:26:15;;;;;;;4.50;3.63;;;8.00;99.90;;;;;;4978897;28;20148;-66
2022/04/15 05:28:41;;;;;;;6.47;4.00;;;8.10;99.90;;;;;;4997662;28;20073;-66
2022/04/15 05:31:08;;;;;;;4.25;3.63;;;8.10;99.90;;;;;;5026981;28;20105;-66
2022/04/15 05:33:33;;;;;;;5.35;3.67;;;8.10;99.90;;;;;;5036839;28;20048;-66
2022/04/15 05:35:59;;;;;;;4.38;3.97;;;8.20;99.90;;;;;;5037032;28;20088;-66
2022/04/15 05:38:25;;;;;;;5.22;4.43;;;8.10;99.90;;;;;;5037439;28;20636;-66
2022/04/15 05:40:50;;;;;;;7.88;4.65;;;8.20;99.90;;;;;;5018710;28;20057;-66
2022/04/15 05:43:16;;;;;;;6.10;3.75;;;8.20;99.90;;;;;;5018795;28;20045;-66
2022/04/15 05:45:42;;;;;;;7.25;4.30;;;8.20;99.90;;;;;;5016851;28;20755;-66
2022/04/15 05:48:08;;;;;;;4.55;4.07;;;8.20;99.90;;;;;;4978850;28;20077;-66
2022/04/15 05:50:34;;;;;;;7.35;4.13;;;8.30;99.90;;;;;;4997208;28;20045;-66
2022/04/15 05:52:59;;;;;;;4.32;3.65;;;8.20;99.90;;;;;;4996594;28;20050;-66
2022/04/15 05:55:25;;;;;;;5.53;4.28;;;8.20;99.90;;;;;;4996533;28;20073;-66
2022/04/15 05:57:51;;;;;;;4.30;3.63;;;8.10;99.90;;;;;;4996420;28;20577;-66
2022/04/15 06:00:17;;;;;;;4.57;3.70;;;8.00;99.90;;;;;;4996506;28;20886;-65
2022/04/15 06:02:42;;;;;;;4.93;4.45;;;8.10;99.90;;;;;;4998146;28;20063;-66
2022/04/15 06:05:08;;;;;;;6.10;3.72;;;8.10;99.90;;;;;;4979408;28;20050;-66
2022/04/15 06:07:35;;;;;;;4.80;3.53;;;8.10;99.90;;;;;;5033042;28;20041;-66
2022/04/15 06:10:01;;;;;;;6.90;5.35;;;8.20;99.90;;;;;;5036205;28;20538;-66
2022/04/15 06:12:57;;;;;;;6.03;4.80;;;8.20;99.90;;;;;;5036042;28;20874;-66
2022/04/15 06:15:24;;;;;;;6.32;5.03;;;8.10;99.90;;;;;;4978882;28;20058;-66
2022/04/15 06:17:50;;;;;;;5.18;4.47;;;8.20;99.90;;;;;;4979525;28;20127;-66
2022/04/15 06:20:17;;;;;;;10.80;5.78;;;8.30;99.90;;;;;;4979542;28;20081;-66
2022/04/15 06:22:44;;;;;;;9.30;5.68;;;8.40;99.90;;;;;;4996139;28;20073;-66
2022/04/15 06:25:10;;;;;;;7.07;6.38;;;8.40;99.90;;;;;;4979174;28;20049;-66
2022/04/15 06:27:36;;;;;;;7.63;5.45;;;8.50;99.90;;;;;;4996977;28;20759;-66
2022/04/15 06:30:01;;;;;;;10.30;6.50;;;8.50;99.90;;;;;;5007707;28;20084;-66
2022/04/15 06:32:27;;;;;;;14.88;6.38;;;8.50;99.90;;;;;;5018157;28;20036;-66
2022/04/15 06:34:53;;;;;;;8.65;6.90;;;8.40;99.90;;;;;;5036286;28;20044;-66
2022/04/15 06:37:18;;;;;;;8.38;6.47;;;8.40;99.90;;;;;;5035090;28;20048;-66
2022/04/15 06:39:50;;;;;;;9.77;6.82;;;8.50;99.90;;;;;;5018151;28;20462;-66
2022/04/15 06:42:21;;;;;;;8.50;6.38;;;8.50;99.90;;;;;;5035507;28;20373;-66
2022/04/15 06:44:48;;;;;;;8.05;5.97;;;8.50;99.90;;;;;;5035485;28;20093;-66
2022/04/15 06:47:13;;;;;;;8.65;6.72;;;8.60;99.90;;;;;;5008417;28;20156;-65
2022/04/15 06:49:39;;;;;;;9.05;6.70;;;8.70;99.90;;;;;;4994838;28;20107;-66
2022/04/15 06:52:05;;;;;;;13.20;7.25;;;8.60;99.90;;;;;;4995338;28;20455;-65
2022/04/15 06:54:31;;;;;;;9.80;8.07;;;8.70;99.90;;;;;;4977628;28;20475;-65
2022/04/15 06:56:57;;;;;;;8.13;6.38;;;8.70;99.90;;;;;;4996171;28;20145;-65
2022/04/15 06:59:22;;;;;;;8.40;6.25;;;8.70;99.90;;;;;;5017719;28;20835;-66
2022/04/15 07:01:48;;;;;;;12.80;7.38;;;8.80;99.90;;;;;;5000131;28;20100;-66
2022/04/15 07:04:14;;;;;;;10.43;7.65;;;8.90;99.90;;;;;;5018108;28;20046;-66
2022/04/15 07:06:39;;;;;;;10.75;7.13;;;8.90;99.90;;;;;;5029153;28;20044;-66
2022/04/15 07:09:05;;;;;;;10.88;7.38;;;8.90;99.90;;;;;;5038658;28;20049;-66
2022/04/15 07:11:30;;;;;;;10.73;7.93;;;8.90;99.90;;;;;;5037316;28;20048;-66
2022/04/15 07:13:56;;;;;;;10.73;8.18;;;9.00;99.90;;;;;;5003748;28;20054;-66
2022/04/15 07:16:21;;;;;;;19.30;9.80;;;9.10;99.90;;;;;;4980225;28;20058;-66
2022/04/15 07:18:47;;;;;;;13.68;9.07;;;8.80;99.90;;;;;;5014548;28;20880;-65
2022/04/15 07:21:12;;;;;;;18.10;10.48;;;9.00;99.90;;;;;;5016373;28;20053;-66
2022/04/15 07:23:38;;;;;;;18.38;10.88;;;8.90;99.90;;;;;;4998374;28;20088;-65
2022/04/15 07:26:04;;;;;;;17.55;10.10;;;9.00;99.90;;;;;;4998095;28;20046;-66
2022/04/15 07:28:29;;;;;;;22.00;9.80;;;9.20;99.90;;;;;;4995773;28;20501;-65
2022/04/15 07:30:55;;;;;;;17.38;9.75;;;9.20;99.90;;;;;;5021654;28;20083;-65
2022/04/15 07:33:20;;;;;;;13.48;8.35;;;9.20;99.90;;;;;;5016061;28;20063;-65
2022/04/15 07:35:46;;;;;;;22.45;10.60;;;9.30;99.90;;;;;;5034807;28;20887;-65
2022/04/15 07:38:12;;;;;;;13.15;8.15;;;9.30;99.90;;;;;;5034802;28;21000;-65
2022/04/15 07:40:37;;;;;;;12.70;8.50;;;9.40;99.90;;;;;;5033709;28;20552;-65
2022/04/15 07:43:03;;;;;;;11.98;7.75;;;9.40;99.90;;;;;;5034684;28;20755;-65
2022/04/15 07:45:29;;;;;;;12.25;7.72;;;9.40;99.90;;;;;;5015694;28;20102;-65
2022/04/15 07:47:54;;;;;;;14.45;8.73;;;9.30;99.90;;;;;;4995929;28;20053;-65
2022/04/15 07:50:25;;;;;;;12.32;8.07;;;9.30;99.90;;;;;;4977762;28;20050;-65
2022/04/15 07:52:54;;;;;;;12.63;7.32;;;9.20;99.90;;;;;;4977660;28;20061;-65
2022/04/15 07:55:19;;;;;;;9.25;6.07;;;9.20;99.90;;;;;;4977397;28;20049;-65
2022/04/15 07:57:45;;;;;;;11.75;7.13;;;9.20;99.90;;;;;;5003835;28;20037;-65
2022/04/15 08:00:11;;;;;;;12.10;6.95;;;9.30;99.90;;;;;;4996841;28;20120;-65
2022/04/15 08:02:37;;;;;;;11.75;6.45;;;9.20;99.90;;;;;;5015425;28;20049;-66
2022/04/15 08:05:04;;;;;;;8.15;6.35;;;9.30;99.90;;;;;;4997719;28;20123;-65
2022/04/15 08:07:29;;;;;;;6.78;5.20;;;9.40;99.90;;;;;;5014490;28;20096;-65
2022/04/15 08:09:55;;;;;;;10.57;5.95;;;9.50;99.90;;;;;;5013737;28;20049;-65
2022/04/15 08:12:20;;;;;;;10.05;6.93;;;9.60;99.90;;;;;;4996677;28;20095;-65
2022/04/15 08:14:46;;;;;;;9.15;6.18;;;9.50;99.90;;;;;;4996222;28;20060;-65
2022/04/15 08:17:12;;;;;;;8.85;6.30;;;9.50;99.90;;;;;;5014603;28;20131;-66
2022/04/15 08:19:37;;;;;;;7.88;5.10;;;9.50;99.90;;;;;;5014800;28;20149;-66
2022/04/15 08:22:03;;;;;;;7.60;5.35;;;9.50;99.90;;;;;;5014081;28;20596;-66
2022/04/15 08:24:29;;;;;;;6.47;4.88;;;9.50;99.90;;;;;;4996192;28;20084;-66
2022/04/15 08:26:56;;;;;;;6.35;4.38;;;9.70;99.90;;;;;;5014782;28;20795;-66
2022/04/15 08:29:22;;;;;;;9.68;4.97;;;9.80;99.90;;;;;;4996451;28;20111;-66
2022/04/15 08:31:48;;;;;;;5.88;4.93;;;9.80;99.90;;;;;;5017097;28;20075;-66
2022/04/15 08:34:13;;;;;;;7.03;5.20;;;9.80;99.90;;;;;;5034066;28;20076;-66
2022/04/15 08:36:39;;;;;;;9.80;6.35;;;9.90;99.90;;;;;;5033322;28;20128;-66
2022/04/15 08:39:06;;;;;;;7.38;4.53;;;9.90;99.90;;;;;;5034253;28;20075;-65
2022/04/15 08:41:39;;;;;;;7.85;5.38;;;9.90;99.90;;;;;;5033835;28;20132;-65
2022/04/15 08:44:06;;;;;;;;;;;10.00;99.90;;;;;;5034722;28;20056;-66
2022/04/15 08:46:31;;;;;;;10.18;5.43;;;10.10;99.90;;;;;;5018960;28;19925;-66
2022/04/15 08:49:00;;;;;;;10.80;7.28;;;10.10;99.90;;;;;;4994628;28;20065;-66
2022/04/15 08:51:26;;;;;;;10.63;5.93;;;10.30;99.90;;;;;;4976832;28;20081;-66
2022/04/15 08:53:54;;;;;;;7.45;5.93;;;10.40;99.90;;;;;;4994571;28;20042;-66
2022/04/15 08:56:22;;;;;;;12.93;6.50;;;10.40;99.90;;;;;;4976344;28;20050;-66
2022/04/15 08:58:48;;;;;;;7.32;5.63;;;10.40;99.90;;;;;;4994484;28;20029;-66
2022/04/15 09:01:13;;;;;;;5.53;5.05;;;10.60;99.90;;;;;;4976575;28;20124;-66
2022/04/15 09:03:40;;;;;;;10.00;6.18;;;10.80;99.90;;;;;;4976103;28;20052;-66
2022/04/15 09:06:14;;;;;;;9.20;6.60;;;10.80;99.90;;;;;;5005577;28;20060;-66
2022/04/15 09:08:59;;;;;;;8.35;5.63;;;10.50;99.90;;;;;;5032549;28;20400;-66
2022/04/15 09:11:33;;;;;;;7.30;5.80;;;10.50;99.90;;;;;;5032300;28;20041;-66
2022/04/15 09:14:02;;;;;;;8.40;5.95;;;11.10;99.90;;;;;;4998312;28;20054;-66
2022/04/15 09:16:29;;;;;;;8.73;5.65;;;11.10;99.90;;;;;;4993126;28;20060;-66
2022/04/15 09:18:56;;;;;;;8.85;6.30;;;11.40;99.90;;;;;;4975200;28;20053;-66
2022/04/15 09:21:27;;;;;;;8.57;5.10;;;11.30;99.90;;;;;;4993413;28;20815;-66
2022/04/15 09:23:55;;;;;;;8.75;5.38;;;11.90;99.90;;;;;;4994182;28;20049;-66
2022/04/15 09:26:21;;;;;;;6.10;5.50;;;12.50;99.90;;;;;;4993609;28;20050;-66
2022/04/15 09:28:48;;;;;;;8.20;5.53;;;12.60;99.90;;;;;;4976824;28;20085;-66
2022/04/15 09:31:15;;;;;;;7.47;4.93;;;12.10;99.90;;;;;;5024628;28;20790;-66
2022/04/15 09:33:51;;;;;;;5.18;4.68;;;12.10;99.90;;;;;;5014952;28;20063;-66
2022/04/15 09:36:24;;;;;;;11.38;5.80;;;11.50;99.90;;;;;;5013121;28;20425;-66
2022/04/15 09:39:02;;;;;;;10.98;6.07;;;11.20;99.90;;;;;;5015130;28;20053;-66
2022/04/15 09:41:29;;;;;;;7.63;5.93;;;11.10;99.90;;;;;;5014057;28;20038;-65
2022/04/15 09:43:57;;;;;;;8.52;5.68;;;10.90;99.90;;;;;;5015665;28;20069;-66
2022/04/15 09:46:22;;;;;;;9.80;5.70;;;11.10;99.90;;;;;;5014744;28;20056;-66
2022/04/15 09:49:01;;;;;;;9.55;5.97;;;11.40;99.90;;;;;;5016184;28;20049;-66
2022/04/15 09:51:27;;;;;;;9.68;5.75;;;11.40;99.90;;;;;;4998268;28;20092;-66
2022/04/15 09:53:55;;;;;;;6.32;5.53;;;11.20;99.90;;;;;;4998098;28;20567;-66
2022/04/15 09:56:22;;;;;;;6.43;5.80;;;11.20;99.90;;;;;;4998495;28;20779;-66
2022/04/15 09:58:56;;;;;;;7.05;5.18;;;11.00;99.90;;;;;;4998516;28;20052;-66
2022/04/15 10:01:26;;;;;;;7.57;6.57;;;11.00;99.90;;;;;;5016133;28;20517;-66
2022/04/15 10:03:55;;;;;;;7.20;5.70;;;10.80;99.90;;;;;;5016358;28;20602;-66
2022/04/15 10:06:21;;;;;;;8.88;5.53;;;10.90;99.90;;;;;;5023662;28;20053;-66
2022/04/15 10:08:47;;;;;;;7.78;6.45;;;10.90;99.90;;;;;;5018681;28;20393;-66
2022/04/15 10:11:14;;;;;;;8.30;6.32;;;10.80;99.90;;;;;;5035838;28;20064;-66
2022/04/15 10:13:44;;;;;;;12.27;6.40;;;10.90;99.90;;;;;;5024441;28;20116;-66
2022/04/15 10:16:10;;;;;;;11.63;7.10;;;10.90;99.90;;;;;;4978183;28;20049;-66
2022/04/15 10:18:36;;;;;;;7.53;6.28;;;11.10;99.90;;;;;;4978522;28;20049;-66
2022/04/15 10:21:03;;;;;;;8.65;6.28;;;11.10;99.90;;;;;;4978222;28;20058;-66
2022/04/15 10:23:30;;;;;;;7.72;5.93;;;11.30;99.90;;;;;;4995874;28;20669;-66
2022/04/15 10:25:59;;;;;;;9.55;5.53;;;11.20;99.90;;;;;;4996318;28;20173;-66
2022/04/15 10:28:45;;;;;;;11.38;6.47;;;11.10;99.90;;;;;;4994881;28;20774;-66
2022/04/15 10:31:16;;;;;;;6.95;5.65;;;10.90;99.90;;;;;;5025532;28;20053;-66
2022/04/15 10:33:43;;;;;;;9.05;4.95;;;10.80;99.90;;;;;;5038014;28;20059;-66
2022/04/15 10:36:20;;;;;;;8.65;6.35;;;10.80;99.90;;;;;;5020510;28;20226;-66
2022/04/15 10:39:06;;;;;;;8.40;5.63;;;10.70;99.90;;;;;;5039245;28;20567;-66
2022/04/15 10:41:44;;;;;;;6.18;5.03;;;10.70;99.90;;;;;;5038400;28;20150;-66
2022/04/15 10:44:36;;;;;;;7.60;6.28;;;10.50;99.90;;;;;;5020574;28;20057;-67
2022/04/15 10:47:17;;;;;;;10.65;5.97;;;10.60;99.90;;;;;;5004192;28;20929;-66
2022/04/15 10:49:54;;;;;;;7.97;5.40;;;10.80;99.90;;;;;;4980994;28;20152;-66
2022/04/15 10:52:24;;;;;;;8.05;6.05;;;10.80;99.90;;;;;;4980693;28;20100;-66
2022/04/15 10:55:02;;;;;;;7.90;5.72;;;10.70;99.90;;;;;;4997131;28;20077;-66
2022/04/15 10:57:40;;;;;;;7.57;6.43;;;10.80;99.90;;;;;;4984244;28;20152;-66
2022/04/15 11:02:56;;;;;;;6.53;5.90;;;10.90;99.90;;;;;;5016244;28;20478;-66
2022/04/15 11:05:43;;;;;;;8.25;5.57;;;10.80;99.90;;;;;;4998196;28;20131;-66
2022/04/15 11:08:14;;;;;;;7.13;5.50;;;10.70;99.90;;;;;;5018711;28;20049;-65
2022/04/15 11:10:42;;;;;;;7.60;5.07;;;10.70;99.90;;;;;;5018867;28;20064;-66
2022/04/15 11:13:10;;;;;;;6.55;5.25;;;10.80;99.90;;;;;;5034076;28;20057;-65
2022/04/15 11:15:57;;;;;;;8.07;5.88;;;10.80;99.90;;;;;;4980408;28;20145;-66
2022/04/15 11:18:23;;;;;;;5.80;5.13;;;10.70;99.90;;;;;;4995590;28;20057;-66
2022/04/15 11:20:49;;;;;;;6.95;5.53;;;10.60;99.90;;;;;;4978660;28;20053;-66
2022/04/15 11:23:16;;;;;;;11.05;6.40;;;10.60;99.90;;;;;;4977794;28;20053;-66
2022/04/15 11:25:45;;;;;;;9.73;6.60;;;10.60;99.90;;;;;;4978440;28;20081;-66
2022/04/15 11:28:11;;;;;;;11.20;6.38;;;10.60;99.90;;;;;;5012148;28;20049;-66
2022/04/15 11:30:37;;;;;;;8.98;6.43;;;10.70;99.90;;;;;;5026000;28;20048;-66
2022/04/15 11:33:06;;;;;;;8.38;6.47;;;10.60;99.90;;;;;;5035354;28;20047;-66
2022/04/15 11:35:33;;;;;;;10.98;5.93;;;10.60;99.90;;;;;;5035586;28;20187;-66
2022/04/15 11:38:05;;;;;;;9.30;7.43;;;10.60;99.90;;;;;;5019484;28;20050;-66
2022/04/15 11:40:35;;;;;;;9.35;6.43;;;10.50;99.90;;;;;;5012376;28;20052;-66
2022/04/15 11:43:06;;;;;;;9.75;6.10;;;10.60;99.90;;;;;;5013766;28;20037;-66
2022/04/15 11:45:36;;;;;;;8.75;6.68;;;10.60;99.90;;;;;;4994810;28;20064;-66
2022/04/15 11:48:25;;;;;;;7.25;6.03;;;10.60;99.90;;;;;;5013066;28;20084;-66
2022/04/15 11:50:52;;;;;;;8.60;6.90;;;10.60;99.90;;;;;;5015872;28;20065;-67
2022/04/15 11:53:18;;;;;;;8.98;5.80;;;10.50;99.90;;;;;;5015189;28;20222;-66
2022/04/15 11:55:58;;;;;;;8.95;6.75;;;10.50;99.90;;;;;;4998052;28;20106;-66
2022/04/15 11:58:31;;;;;;;9.45;6.70;;;10.60;99.90;;;;;;4997525;28;20081;-66
2022/04/15 12:00:59;;;;;;;8.43;5.53;;;10.70;99.90;;;;;;5014870;28;20089;-66
2022/04/15 12:03:26;;;;;;;7.22;5.72;;;10.60;99.90;;;;;;5014530;28;20125;-66
2022/04/15 12:05:57;;;;;;;7.07;5.43;;;10.60;99.90;;;;;;5018968;28;20057;-66
2022/04/15 12:08:24;;;;;;;8.38;5.68;;;10.50;99.90;;;;;;5008626;28;20041;-66
2022/04/15 12:10:51;;;;;;;7.63;6.22;;;10.50;99.90;;;;;;5015613;28;20123;-66
2022/04/15 12:13:17;;;;;;;6.15;4.85;;;10.60;99.90;;;;;;5012800;28;20046;-66
2022/04/15 12:15:44;;;;;;;6.70;5.82;;;11.40;99.90;;;;;;5014244;28;20065;-66
2022/04/15 12:18:10;;;;;;;6.63;5.60;;;10.80;99.90;;;;;;5014199;28;20045;-66
2022/04/15 12:20:39;;;;;;;7.15;5.25;;;10.80;99.90;;;;;;5012800;28;20551;-66
2022/04/15 12:23:09;;;;;;;6.75;5.47;;;10.80;99.90;;;;;;4993715;28;20136;-66
2022/04/15 12:31:03;;;;;;;9.27;5.40;;;10.90;99.90;;;;;;5013567;28;20626;-66
2022/04/15 12:33:29;;;;;;;6.68;5.30;;;10.80;99.90;;;;;;5013179;28;20041;-66
2022/04/15 12:36:03;;;;;;;6.65;5.57;;;10.90;99.90;;;;;;5013090;28;20045;-66
2022/04/15 12:38:30;;;;;;;7.15;5.40;;;10.80;99.90;;;;;;4993989;28;20041;-66
2022/04/15 12:41:12;;;;;;;7.05;6.45;;;10.90;99.90;;;;;;5013896;28;20041;-66
2022/04/15 12:43:37;;;;;;;7.60;5.78;;;10.80;99.90;;;;;;5014721;28;20049;-66
2022/04/15 12:46:03;;;;;;;9.90;6.30;;;10.80;99.90;;;;;;4997422;28;20050;-66
2022/04/15 12:48:29;;;;;;;7.40;5.55;;;10.80;99.90;;;;;;5014935;28;20041;-66
2022/04/15 12:50:58;;;;;;;7.90;6.68;;;10.80;99.90;;;;;;5015909;28;20543;-66
2022/04/15 12:53:25;;;;;;;7.03;5.90;;;10.70;99.90;;;;;;5013874;28;20044;-66
2022/04/15 12:55:53;;;;;;;8.77;6.78;;;10.60;99.90;;;;;;4996486;28;20080;-66
2022/04/15 12:58:27;;;;;;;7.85;7.05;;;10.60;99.90;;;;;;4997133;28;20049;-66
2022/04/15 13:00:54;;;;;;;10.77;7.80;;;10.70;99.90;;;;;;5014387;28;20666;-67
2022/04/15 13:03:22;;;;;;;7.15;6.45;;;10.70;99.90;;;;;;5014546;28;20041;-65